Time;durP1;ratioP1;P1;durP2;ratioP2;P2;SDS_P1;SDS_P2;PMS_P1;PMS_P2;Temp;Humidity;BMP_temperature;BMP_pressure;BME280_temperature;BME280_humidity;BME280_pressure;Samples;Min_cycle;Max_cycle;Signal;HPM_P1;HPM_P2
2023/06/13 00:00:51;;;;;;;15.05;11.82;;;15.80;99.90;;;;;;5041089;28;20552;-82
2023/06/13 00:03:19;;;;;;;15.13;11.50;;;15.80;99.90;;;;;;5024778;28;20021;-82
2023/06/13 00:05:46;;;;;;;20.90;11.52;;;15.70;99.90;;;;;;5039339;28;20039;-82
2023/06/13 00:08:17;;;;;;;16.35;10.90;;;15.70;99.90;;;;;;5007549;28;20025;-82
2023/06/13 00:10:49;;;;;;;15.10;9.40;;;15.70;99.90;;;;;;5040261;28;20037;-82
2023/06/13 00:13:15;;;;;;;14.07;10.15;;;15.60;99.90;;;;;;5041911;28;20072;-82
2023/06/13 00:15:56;;;;;;;15.77;9.40;;;15.60;99.90;;;;;;5030042;28;20037;-82
2023/06/13 00:18:22;;;;;;;12.37;9.80;;;15.60;99.90;;;;;;5032371;28;20832;-82
2023/06/13 00:20:49;;;;;;;12.70;10.32;;;15.50;99.90;;;;;;5018082;28;20124;-82
2023/06/13 00:23:16;;;;;;;13.85;9.88;;;15.50;99.90;;;;;;5025826;28;20041;-82
2023/06/13 00:25:42;;;;;;;12.20;10.45;;;15.50;99.90;;;;;;5000934;28;20857;-83
2023/06/13 00:28:07;;;;;;;14.38;10.55;;;15.40;99.90;;;;;;5017294;28;20104;-82
2023/06/13 00:30:33;;;;;;;16.10;10.85;;;15.40;99.90;;;;;;5008561;28;20064;-82
2023/06/13 00:32:59;;;;;;;14.10;11.07;;;15.30;99.90;;;;;;5012741;28;20074;-83
2023/06/13 00:35:25;;;;;;;13.75;10.63;;;15.30;99.90;;;;;;5028609;28;20025;-82
2023/06/13 00:37:54;;;;;;;15.30;10.85;;;15.20;99.90;;;;;;5043703;28;20028;-83
2023/06/13 00:40:20;;;;;;;13.88;10.73;;;15.20;99.90;;;;;;5005732;28;20211;-83
2023/06/13 00:42:46;;;;;;;12.70;10.07;;;15.10;99.90;;;;;;5002118;28;20053;-82
2023/06/13 00:45:22;;;;;;;12.45;10.55;;;15.10;99.90;;;;;;5024871;28;20025;-82
2023/06/13 00:47:55;;;;;;;11.07;9.52;;;15.00;99.90;;;;;;5023668;28;20026;-82
2023/06/13 00:50:30;;;;;;;14.52;9.93;;;15.00;99.90;;;;;;5007177;28;20041;-82
2023/06/13 00:52:59;;;;;;;10.02;8.85;;;14.90;99.90;;;;;;5020715;28;20099;-82
2023/06/13 00:55:26;;;;;;;11.88;8.82;;;14.90;99.90;;;;;;4988192;28;20057;-82
2023/06/13 00:57:58;;;;;;;11.02;8.95;;;14.80;99.90;;;;;;5004823;28;20037;-82
2023/06/13 01:00:25;;;;;;;11.80;9.80;;;14.80;99.90;;;;;;4999312;28;20872;-82
2023/06/13 01:02:55;;;;;;;12.35;10.30;;;14.70;99.90;;;;;;5008156;28;20120;-81
2023/06/13 01:05:28;;;;;;;11.40;9.98;;;14.70;99.90;;;;;;5015024;28;20029;-82
2023/06/13 01:07:57;;;;;;;12.98;9.80;;;14.70;99.90;;;;;;5006457;28;20029;-82
2023/06/13 01:10:27;;;;;;;14.52;10.18;;;14.60;99.90;;;;;;5009333;28;20045;-82
2023/06/13 01:13:14;;;;;;;12.38;9.60;;;14.50;99.90;;;;;;5023846;28;20093;-82
2023/06/13 01:16:08;;;;;;;11.60;9.73;;;14.50;99.90;;;;;;5007646;28;20301;-83
2023/06/13 01:18:38;;;;;;;10.85;8.57;;;14.50;99.90;;;;;;5031401;28;20052;-82
2023/06/13 01:21:05;;;;;;;11.60;9.48;;;14.40;99.90;;;;;;5044396;28;20025;-82
2023/06/13 01:24:05;;;;;;;13.90;9.73;;;14.40;99.90;;;;;;5024926;28;20048;-82
2023/06/13 01:26:54;;;;;;;10.50;8.85;;;14.40;99.90;;;;;;5023556;28;20037;-82
2023/06/13 01:29:21;;;;;;;10.63;8.60;;;14.40;99.90;;;;;;5024410;28;20556;-82
2023/06/13 01:31:50;;;;;;;12.35;9.23;;;14.40;99.90;;;;;;5045315;28;20025;-81
2023/06/13 01:34:17;;;;;;;13.07;9.15;;;14.40;99.90;;;;;;5022673;28;20048;-82
2023/06/13 01:36:43;;;;;;;11.68;8.45;;;14.30;99.90;;;;;;5025592;28;20457;-82
2023/06/13 01:39:08;;;;;;;11.20;8.65;;;14.40;99.90;;;;;;5018309;28;20124;-82
2023/06/13 01:41:34;;;;;;;13.98;8.60;;;14.40;99.90;;;;;;5026109;28;20034;-82
2023/06/13 01:44:02;;;;;;;11.35;8.40;;;14.30;99.90;;;;;;5043061;28;20066;-82
2023/06/13 01:46:29;;;;;;;9.50;8.27;;;14.30;99.90;;;;;;5022318;28;20461;-82
2023/06/13 01:48:54;;;;;;;9.75;7.68;;;14.30;99.90;;;;;;5044385;28;20032;-81
2023/06/13 01:51:37;;;;;;;11.85;7.78;;;14.30;99.90;;;;;;5024140;28;20527;-82
2023/06/13 01:54:06;;;;;;;14.38;7.93;;;14.30;99.90;;;;;;5012603;28;20073;-82
2023/06/13 01:56:33;;;;;;;8.02;6.97;;;14.30;99.90;;;;;;5043087;28;20622;-81
2023/06/13 01:59:10;;;;;;;8.90;7.05;;;14.30;99.90;;;;;;5026294;28;20036;-82
2023/06/13 02:01:38;;;;;;;8.57;7.25;;;14.30;99.90;;;;;;5036486;28;20043;-82
2023/06/13 02:04:04;;;;;;;9.55;6.85;;;14.20;99.90;;;;;;5025571;28;20408;-81
2023/06/13 02:06:32;;;;;;;9.20;6.55;;;14.20;99.90;;;;;;5027167;28;20029;-82
2023/06/13 02:08:58;;;;;;;11.35;6.78;;;14.20;99.90;;;;;;5027896;28;20545;-81
2023/06/13 02:11:25;;;;;;;8.02;6.53;;;14.20;99.90;;;;;;5044603;28;20067;-81
2023/06/13 02:13:51;;;;;;;10.40;7.35;;;14.20;99.90;;;;;;5044884;28;20039;-81
2023/06/13 02:16:18;;;;;;;12.65;6.70;;;14.20;99.90;;;;;;5026696;28;20678;-81
2023/06/13 02:18:44;;;;;;;11.60;8.07;;;14.20;99.90;;;;;;5019894;28;20144;-81
2023/06/13 02:21:09;;;;;;;11.40;7.57;;;14.10;99.90;;;;;;5021855;28;20140;-82
2023/06/13 02:23:35;;;;;;;11.23;7.43;;;14.00;99.90;;;;;;4995008;28;20097;-81
2023/06/13 02:26:01;;;;;;;9.02;7.40;;;14.00;99.90;;;;;;5007442;28;20029;-81
2023/06/13 02:28:27;;;;;;;8.63;7.72;;;13.90;99.90;;;;;;5006483;28;20035;-82
2023/06/13 02:30:53;;;;;;;8.85;7.75;;;13.90;99.90;;;;;;5006165;28;20115;-82
2023/06/13 02:33:18;;;;;;;11.95;7.88;;;13.80;99.90;;;;;;5009239;28;20554;-81
2023/06/13 02:35:48;;;;;;;12.52;8.40;;;13.70;99.90;;;;;;5025110;28;20029;-81
2023/06/13 02:38:13;;;;;;;10.70;7.93;;;13.60;99.90;;;;;;4993081;28;20088;-82
2023/06/13 02:40:39;;;;;;;8.68;7.63;;;13.60;99.90;;;;;;4998267;28;20049;-82
2023/06/13 02:43:05;;;;;;;12.50;8.38;;;13.50;99.90;;;;;;5025637;28;20025;-82
2023/06/13 02:45:31;;;;;;;11.65;8.02;;;13.50;99.90;;;;;;5007250;28;20065;-81
2023/06/13 02:47:56;;;;;;;10.07;7.82;;;13.40;99.90;;;;;;5023627;28;20032;-81
2023/06/13 02:50:22;;;;;;;10.15;8.40;;;13.30;99.90;;;;;;4997618;28;20568;-81
2023/06/13 02:52:48;;;;;;;10.65;8.20;;;13.30;99.90;;;;;;5006828;28;20033;-82
2023/06/13 02:55:14;;;;;;;10.40;8.30;;;13.20;99.90;;;;;;5008713;28;20048;-81
2023/06/13 02:57:40;;;;;;;11.65;8.65;;;13.20;99.90;;;;;;5008657;28;20025;-82
2023/06/13 03:00:08;;;;;;;10.57;8.68;;;13.10;99.90;;;;;;5015896;28;20050;-81
2023/06/13 03:02:36;;;;;;;12.65;8.70;;;13.10;99.90;;;;;;5038344;23;20053;-72
2023/06/13 03:05:04;;;;;;;10.40;8.30;;;13.00;99.90;;;;;;5025779;28;20036;-71
2023/06/13 03:07:31;;;;;;;9.10;8.20;;;13.00;99.90;;;;;;5036094;28;20029;-71
2023/06/13 03:10:00;;;;;;;9.88;8.30;;;13.00;99.90;;;;;;5030033;28;20029;-71
2023/06/13 03:12:26;;;;;;;10.38;7.57;;;13.00;99.90;;;;;;5035591;28;20028;-71
2023/06/13 03:14:52;;;;;;;8.75;7.47;;;12.90;99.90;;;;;;5024754;28;20045;-71
2023/06/13 03:17:17;;;;;;;10.27;8.50;;;12.90;99.90;;;;;;5030903;28;20148;-71
2023/06/13 03:19:43;;;;;;;9.88;7.70;;;12.90;99.90;;;;;;5027552;28;20041;-71
2023/06/13 03:22:13;;;;;;;11.45;8.20;;;12.90;99.90;;;;;;5028960;28;20029;-71
2023/06/13 03:24:44;;;;;;;11.18;7.95;;;12.90;99.90;;;;;;5031233;28;20032;-71
2023/06/13 03:27:12;;;;;;;10.13;7.68;;;12.90;99.90;;;;;;5033610;28;20028;-71
2023/06/13 03:29:38;;;;;;;9.15;7.15;;;12.90;99.90;;;;;;5037529;28;20024;-71
2023/06/13 03:32:04;;;;;;;9.70;7.20;;;12.90;99.90;;;;;;5036991;28;20200;-71
2023/06/13 03:34:37;;;;;;;8.32;6.72;;;12.80;99.90;;;;;;5052289;28;20138;-71
2023/06/13 03:37:05;;;;;;;11.35;7.45;;;12.80;99.90;;;;;;5021127;28;20021;-71
2023/06/13 03:39:30;;;;;;;9.43;7.13;;;12.90;99.90;;;;;;5022672;28;20041;-71
2023/06/13 03:41:56;;;;;;;10.35;6.70;;;12.90;99.90;;;;;;5021848;28;20037;-71
2023/06/13 03:44:22;;;;;;;7.55;5.55;;;12.80;99.90;;;;;;5036087;28;20082;-71
2023/06/13 03:46:47;;;;;;;8.32;5.80;;;12.80;99.90;;;;;;5027830;28;20484;-72
2023/06/13 03:49:13;;;;;;;7.97;5.57;;;12.80;99.90;;;;;;5036782;28;20366;-69
2023/06/13 03:51:38;;;;;;;7.38;6.20;;;12.90;99.90;;;;;;5037423;28;20036;-71
2023/06/13 03:54:04;;;;;;;8.25;6.00;;;12.90;99.90;;;;;;5019267;28;20138;-71
2023/06/13 03:56:30;;;;;;;8.75;5.65;;;12.90;99.90;;;;;;5020009;28;20463;-71
2023/06/13 03:58:55;;;;;;;9.20;5.55;;;12.90;99.90;;;;;;5022136;28;20124;-71
2023/06/13 04:01:21;;;;;;;7.55;5.00;;;12.90;99.90;;;;;;5020151;28;20120;-71
2023/06/13 04:03:47;;;;;;;8.57;5.20;;;12.90;99.90;;;;;;5025018;28;20122;-71
2023/06/13 04:06:12;;;;;;;8.00;5.43;;;13.00;99.90;;;;;;5041349;28;20093;-71
2023/06/13 04:08:38;;;;;;;6.97;4.82;;;12.90;99.90;;;;;;5041563;28;20017;-71
2023/06/13 04:11:05;;;;;;;6.55;4.90;;;13.00;99.90;;;;;;5040408;28;20025;-71
2023/06/13 04:13:30;;;;;;;7.18;5.40;;;12.90;99.90;;;;;;5042613;28;20108;-71
2023/06/13 04:15:56;;;;;;;6.22;5.25;;;13.00;99.90;;;;;;5030032;28;20064;-71
2023/06/13 04:18:23;;;;;;;7.97;5.47;;;13.00;99.90;;;;;;5028170;28;20657;-71
2023/06/13 04:20:52;;;;;;;7.05;5.13;;;13.00;99.90;;;;;;5035312;28;20044;-70
2023/06/13 04:23:18;;;;;;;7.28;5.45;;;13.00;99.90;;;;;;5027852;28;20127;-72
2023/06/13 04:25:44;;;;;;;7.60;5.45;;;13.00;99.90;;;;;;5039935;28;20056;-71
2023/06/13 04:28:13;;;;;;;9.30;5.93;;;13.00;99.90;;;;;;5024937;28;20033;-71
2023/06/13 04:30:40;;;;;;;6.72;5.32;;;13.00;99.90;;;;;;5025838;28;20482;-71
2023/06/13 04:33:14;;;;;;;6.80;5.00;;;13.10;99.90;;;;;;5018213;28;20025;-71
2023/06/13 04:35:44;;;;;;;7.55;5.35;;;13.10;99.90;;;;;;5019312;28;20025;-71
2023/06/13 04:38:14;;;;;;;6.63;4.95;;;13.10;99.90;;;;;;5022477;28;20049;-71
2023/06/13 04:40:40;;;;;;;9.95;5.55;;;13.10;99.90;;;;;;5035973;28;20258;-71
2023/06/13 04:43:05;;;;;;;8.52;5.45;;;13.10;99.90;;;;;;5040001;28;20469;-71
2023/06/13 04:45:33;;;;;;;9.80;5.47;;;13.20;99.90;;;;;;5021562;28;20176;-71
2023/06/13 04:48:01;;;;;;;6.70;5.13;;;13.20;99.90;;;;;;5019147;28;20104;-71
2023/06/13 04:50:28;;;;;;;8.93;5.15;;;13.20;99.90;;;;;;5018433;28;20401;-71
2023/06/13 04:52:57;;;;;;;8.52;5.50;;;13.20;99.90;;;;;;5029725;28;20049;-72
2023/06/13 04:55:25;;;;;;;9.60;5.65;;;13.30;99.90;;;;;;5015217;28;20051;-71
2023/06/13 04:57:51;;;;;;;9.35;5.45;;;13.40;99.90;;;;;;5033270;28;20121;-71
2023/06/13 05:00:18;;;;;;;7.28;5.15;;;13.40;99.90;;;;;;5035712;28;20037;-71
2023/06/13 05:02:45;;;;;;;8.32;5.55;;;13.50;99.90;;;;;;4981735;28;1222671;-71
2023/06/13 05:05:10;;;;;;;7.28;5.35;;;13.50;99.90;;;;;;5020886;28;20849;-72
2023/06/13 05:07:39;;;;;;;7.82;4.93;;;13.60;99.90;;;;;;5017769;28;20032;-71
2023/06/13 05:10:05;;;;;;;8.57;6.07;;;13.70;99.90;;;;;;5029897;28;20033;-71
2023/06/13 05:12:30;;;;;;;7.85;5.47;;;13.70;99.90;;;;;;5017790;28;20037;-71
2023/06/13 05:14:56;;;;;;;7.63;4.88;;;13.80;99.90;;;;;;5031681;28;20048;-71
2023/06/13 05:17:22;;;;;;;8.40;5.55;;;13.90;99.90;;;;;;5028255;28;20057;-71
2023/06/13 05:19:48;;;;;;;7.70;5.40;;;13.90;99.90;;;;;;5017885;28;20038;-71
2023/06/13 05:22:15;;;;;;;7.43;5.50;;;14.00;99.90;;;;;;5026553;28;20040;-71
2023/06/13 05:24:40;;;;;;;7.30;5.22;;;14.10;99.90;;;;;;5022024;28;20626;-71
2023/06/13 05:27:06;;;;;;;5.72;5.03;;;14.20;99.90;;;;;;5037434;28;20272;-72
2023/06/13 05:29:32;;;;;;;9.32;5.35;;;14.20;99.90;;;;;;5029132;28;20037;-71
2023/06/13 05:31:57;;;;;;;8.23;5.63;;;14.30;99.90;;;;;;5017723;28;20497;-71
2023/06/13 05:34:24;;;;;;;8.65;5.30;;;14.40;99.90;;;;;;5021020;28;20029;-71
2023/06/13 05:36:50;;;;;;;8.07;5.82;;;14.40;99.90;;;;;;5022359;28;20430;-71
2023/06/13 05:39:15;;;;;;;7.78;5.90;;;14.50;99.90;;;;;;5030507;28;20053;-71
2023/06/13 05:41:41;;;;;;;8.10;5.80;;;14.60;99.90;;;;;;5023229;28;20543;-71
2023/06/13 05:44:08;;;;;;;7.22;5.10;;;14.70;99.90;;;;;;5029170;28;20108;-71
2023/06/13 05:46:34;;;;;;;8.25;5.35;;;14.70;99.90;;;;;;5040673;28;20029;-71
2023/06/13 05:49:00;;;;;;;8.13;5.70;;;14.80;99.90;;;;;;5019808;28;20103;-71
2023/06/13 05:51:25;;;;;;;7.55;5.10;;;15.00;99.90;;;;;;5023826;28;20041;-72
2023/06/13 05:53:51;;;;;;;7.35;5.30;;;15.00;99.90;;;;;;5018078;28;20036;-71
2023/06/13 05:56:17;;;;;;;7.93;5.45;;;15.20;99.90;;;;;;5031498;28;20240;-72
2023/06/13 05:58:43;;;;;;;10.02;5.50;;;15.30;99.90;;;;;;5028905;28;20029;-71
2023/06/13 06:01:10;;;;;;;7.13;4.95;;;15.40;99.90;;;;;;5025842;28;20171;-71
2023/06/13 06:03:36;;;;;;;10.25;7.13;;;15.60;99.90;;;;;;5024515;28;20049;-71
2023/06/13 06:06:02;;;;;;;15.75;14.00;;;15.70;99.90;;;;;;5029875;28;20036;-72
2023/06/13 06:08:28;;;;;;;420.98;248.05;;;15.80;99.90;;;;;;5025042;28;20029;-71
2023/06/13 06:10:54;;;;;;;71.53;41.30;;;15.80;99.90;;;;;;5022148;28;20029;-71
2023/06/13 06:13:19;;;;;;;23.30;13.55;;;16.00;99.90;;;;;;5016002;28;20043;-71
2023/06/13 06:15:45;;;;;;;9.82;6.40;;;16.10;99.90;;;;;;5011217;28;20021;-71
2023/06/13 06:18:11;;;;;;;6.90;5.95;;;16.30;99.90;;;;;;5013012;28;20041;-72
2023/06/13 06:20:36;;;;;;;10.15;5.50;;;16.40;99.90;;;;;;5017744;28;20097;-71
2023/06/13 06:23:02;;;;;;;7.82;4.95;;;16.60;99.90;;;;;;5021779;28;20032;-72
2023/06/13 06:25:28;;;;;;;25.05;18.75;;;16.70;99.90;;;;;;5022408;28;20054;-72
2023/06/13 06:27:55;;;;;;;8.52;6.20;;;16.80;99.90;;;;;;5021574;28;20061;-71
2023/06/13 06:30:20;;;;;;;7.05;5.28;;;16.90;99.90;;;;;;5020385;28;20030;-71
2023/06/13 06:32:46;;;;;;;7.38;5.57;;;17.00;99.90;;;;;;5036050;28;20039;-71
2023/06/13 06:35:14;;;;;;;13.93;5.57;;;17.20;99.90;;;;;;5039778;28;20446;-72
2023/06/13 06:37:40;;;;;;;8.32;5.70;;;17.30;99.90;;;;;;5035983;28;20021;-72
2023/06/13 06:40:06;;;;;;;120.38;74.53;;;17.40;99.90;;;;;;5037367;28;20041;-71
2023/06/13 06:42:32;;;;;;;90.05;53.88;;;17.40;99.90;;;;;;5026484;28;20444;-71
2023/06/13 06:44:58;;;;;;;13.13;7.75;;;17.50;99.90;;;;;;5019711;28;20063;-71
2023/06/13 06:47:23;;;;;;;17.85;9.13;;;17.70;99.90;;;;;;5011610;28;20087;-71
2023/06/13 06:49:49;;;;;;;10.73;6.25;;;17.70;99.90;;;;;;5021032;28;20167;-71
2023/06/13 06:52:15;;;;;;;10.27;6.93;;;17.90;99.90;;;;;;5010117;28;20496;-71
2023/06/13 06:54:40;;;;;;;7.32;5.40;;;18.00;99.90;;;;;;5021903;28;20124;-71
2023/06/13 06:57:06;;;;;;;86.65;55.45;;;18.00;99.90;;;;;;5022903;28;20436;-71
2023/06/13 06:59:32;;;;;;;19.30;11.75;;;18.10;99.90;;;;;;5018799;28;20037;-71
2023/06/13 07:01:57;;;;;;;11.35;6.10;;;18.30;99.90;;;;;;5024731;28;20516;-71
2023/06/13 07:04:23;;;;;;;7.53;5.57;;;18.50;99.90;;;;;;5037127;28;20055;-71
2023/06/13 07:06:49;;;;;;;9.02;5.38;;;18.60;99.90;;;;;;5043332;28;20037;-72
2023/06/13 07:09:14;;;;;;;7.85;4.80;;;18.60;99.90;;;;;;5038548;28;20098;-71
2023/06/13 07:11:40;;;;;;;12.82;4.93;;;18.70;99.90;;;;;;5039249;28;20025;-71
2023/06/13 07:14:06;;;;;;;10.15;5.60;;;18.80;99.90;;;;;;5042511;28;20487;-71
2023/06/13 07:16:32;;;;;;;7.05;5.20;;;19.00;99.90;;;;;;5052312;28;20082;-71
2023/06/13 07:18:57;;;;;;;10.65;5.75;;;19.00;99.90;;;;;;5040530;28;20032;-71
2023/06/13 07:21:23;;;;;;;6.70;4.90;;;19.20;99.90;;;;;;5030488;28;20127;-71
2023/06/13 07:23:48;;;;;;;10.40;4.70;;;19.40;99.90;;;;;;5028461;28;20044;-71
2023/06/13 07:26:15;;;;;;;9.48;5.57;;;19.60;99.90;;;;;;5030611;28;20081;-70
2023/06/13 07:28:41;;;;;;;7.70;4.70;;;20.10;99.00;;;;;;5031553;28;20327;-71
2023/06/13 07:31:07;;;;;;;5.72;4.45;;;21.00;98.20;;;;;;5042612;28;20024;-71
2023/06/13 07:33:32;;;;;;;8.60;4.65;;;23.40;94.90;;;;;;5037083;28;20037;-71
2023/06/13 07:35:58;;;;;;;7.15;5.22;;;26.50;89.00;;;;;;5034494;28;20029;-71
2023/06/13 07:38:25;;;;;;;8.25;4.82;;;29.10;76.20;;;;;;5039038;28;20040;-71
2023/06/13 07:40:51;;;;;;;10.40;5.38;;;30.70;64.90;;;;;;5046598;28;20039;-71
2023/06/13 07:43:17;;;;;;;6.07;3.90;;;32.10;58.40;;;;;;5045758;28;20036;-71
2023/06/13 07:45:42;;;;;;;10.18;5.03;;;33.90;55.30;;;;;;5040801;28;20471;-71
2023/06/13 07:48:08;;;;;;;8.85;4.90;;;34.80;50.60;;;;;;5045624;28;20029;-71
2023/06/13 07:50:34;;;;;;;8.55;4.97;;;34.90;47.40;;;;;;5039592;28;20067;-71
2023/06/13 07:53:00;;;;;;;8.55;4.50;;;36.00;45.90;;;;;;5044488;28;20043;-71
2023/06/13 07:55:26;;;;;;;8.10;4.53;;;36.20;44.10;;;;;;5041419;28;20033;-71
2023/06/13 07:57:52;;;;;;;9.90;4.55;;;37.10;43.50;;;;;;5039088;28;20031;-71
2023/06/13 08:00:18;;;;;;;8.75;4.30;;;37.40;40.70;;;;;;5032370;28;20122;-71
2023/06/13 08:02:44;;;;;;;8.93;4.35;;;37.90;41.20;;;;;;5041519;28;20043;-71
2023/06/13 08:05:11;;;;;;;6.88;4.18;;;38.30;39.40;;;;;;5041772;28;20029;-71
2023/06/13 08:07:37;;;;;;;7.78;4.10;;;38.40;39.50;;;;;;5034674;28;20480;-71
2023/06/13 08:10:03;;;;;;;7.47;4.15;;;39.00;41.20;;;;;;5036382;28;20033;-71
2023/06/13 08:12:28;;;;;;;7.32;4.30;;;39.70;39.10;;;;;;5042375;28;20103;-71
2023/06/13 08:14:54;;;;;;;6.85;4.60;;;39.40;38.60;;;;;;5042535;28;20958;-71
2023/06/13 08:17:20;;;;;;;8.52;4.80;;;40.00;37.40;;;;;;5045004;28;20036;-71
2023/06/13 08:19:50;;;;;;;7.05;5.07;;;40.60;37.20;;;;;;5057376;28;20037;-71
2023/06/13 08:22:16;;;;;;;7.03;4.40;;;40.70;34.20;;;;;;5040722;28;20115;-71
2023/06/13 08:24:41;;;;;;;6.38;4.45;;;41.10;34.50;;;;;;5046050;28;20666;-71
2023/06/13 08:27:07;;;;;;;5.93;4.25;;;41.30;33.60;;;;;;5042647;28;20025;-71
2023/06/13 08:29:33;;;;;;;6.18;4.45;;;41.90;34.50;;;;;;5019856;28;20033;-71
2023/06/13 08:31:59;;;;;;;6.97;4.20;;;41.60;34.00;;;;;;5025965;28;20060;-71
2023/06/13 08:34:26;;;;;;;7.95;4.28;;;42.00;33.60;;;;;;5037015;28;20029;-71
2023/06/13 08:36:52;;;;;;;6.88;4.65;;;42.00;33.50;;;;;;5032083;28;20064;-71
2023/06/13 08:39:18;;;;;;;10.75;4.68;;;41.40;31.40;;;;;;5029007;28;20365;-71
2023/06/13 08:41:44;;;;;;;6.30;4.97;;;42.00;33.30;;;;;;5034866;28;20333;-71
2023/06/13 08:44:10;;;;;;;7.20;4.50;;;41.50;31.60;;;;;;5040186;28;20576;-71
2023/06/13 08:46:36;;;;;;;7.93;4.13;;;41.20;32.80;;;;;;5037086;28;20020;-71
2023/06/13 08:49:02;;;;;;;9.57;4.18;;;41.20;33.00;;;;;;5046381;28;20071;-71
2023/06/13 08:51:31;;;;;;;9.73;4.50;;;41.00;34.10;;;;;;5051434;28;20193;-71
2023/06/13 08:54:02;;;;;;;9.73;5.05;;;41.40;34.50;;;;;;5057442;28;20054;-71
2023/06/13 08:56:32;;;;;;;7.97;4.93;;;40.90;31.80;;;;;;5054814;28;20039;-71
2023/06/13 08:59:03;;;;;;;;;;;40.10;34.40;;;;;;5043574;28;20059;-70
2023/06/13 09:01:29;;;;;;;9.68;4.63;;;41.40;35.90;;;;;;5049528;28;20387;-72
2023/06/13 09:03:57;;;;;;;8.50;4.97;;;41.70;34.30;;;;;;5030848;28;20147;-71
2023/06/13 09:06:23;;;;;;;8.55;5.00;;;41.40;31.80;;;;;;5052800;28;20041;-71
2023/06/13 09:08:51;;;;;;;6.45;5.32;;;41.60;34.80;;;;;;5045260;28;20021;-70
2023/06/13 09:11:18;;;;;;;9.52;5.22;;;41.30;31.30;;;;;;5046220;28;20029;-71
2023/06/13 09:13:45;;;;;;;9.15;4.78;;;41.70;32.70;;;;;;5041108;28;20581;-71
2023/06/13 09:16:11;;;;;;;7.00;4.75;;;42.00;31.80;;;;;;5054344;28;20040;-71
2023/06/13 09:18:42;;;;;;;10.68;5.55;;;41.50;31.90;;;;;;5042997;28;20029;-71
2023/06/13 09:21:09;;;;;;;7.07;4.85;;;42.00;30.60;;;;;;5046045;28;20036;-71
2023/06/13 09:23:36;;;;;;;6.80;4.03;;;43.10;32.40;;;;;;5046201;28;20025;-71
2023/06/13 09:26:02;;;;;;;7.65;4.78;;;43.80;31.60;;;;;;5052660;28;20039;-71
2023/06/13 09:28:36;;;;;;;8.93;4.50;;;43.70;29.70;;;;;;5048447;28;20027;-71
2023/06/13 09:31:01;;;;;;;8.00;4.53;;;44.00;31.10;;;;;;5044466;28;20029;-70
2023/06/13 09:33:27;;;;;;;10.18;5.05;;;43.20;30.30;;;;;;5045934;28;20037;-71
2023/06/13 09:35:53;;;;;;;5.75;4.20;;;42.90;29.80;;;;;;5052924;28;20025;-71
2023/06/13 09:38:23;;;;;;;5.70;4.05;;;42.30;32.10;;;;;;5047600;28;20037;-71
2023/06/13 09:40:51;;;;;;;10.20;4.60;;;43.50;30.80;;;;;;5039639;28;20045;-71
2023/06/13 09:43:17;;;;;;;6.78;4.50;;;43.80;28.80;;;;;;5042201;28;20025;-71
2023/06/13 09:45:43;;;;;;;9.68;4.70;;;44.20;29.80;;;;;;5045013;28;20032;-70
2023/06/13 09:48:09;;;;;;;8.65;4.90;;;44.00;29.60;;;;;;5056577;28;20024;-71
2023/06/13 09:50:36;;;;;;;9.10;4.93;;;44.70;29.80;;;;;;5056946;28;20024;-71
2023/06/13 09:53:02;;;;;;;8.60;5.07;;;45.60;30.80;;;;;;5046104;28;20051;-71
2023/06/13 09:55:29;;;;;;;6.32;4.55;;;44.40;28.20;;;;;;5044513;28;20021;-71
2023/06/13 09:57:55;;;;;;;9.90;4.80;;;43.70;31.40;;;;;;5034428;28;20035;-71
2023/06/13 10:00:22;;;;;;;9.40;4.53;;;43.60;31.80;;;;;;5042848;28;20048;-71
2023/06/13 10:02:48;;;;;;;9.50;4.97;;;43.00;29.50;;;;;;5034001;28;20106;-71
2023/06/13 10:05:14;;;;;;;9.07;4.65;;;42.90;29.40;;;;;;5033175;28;20617;-71
2023/06/13 10:07:40;;;;;;;9.20;5.80;;;43.20;31.10;;;;;;5031766;28;20508;-71
2023/06/13 10:10:06;;;;;;;10.70;4.78;;;42.40;28.50;;;;;;5032369;28;20055;-69
2023/06/13 10:12:36;;;;;;;5.38;4.45;;;42.60;32.20;;;;;;5021545;28;20087;-70
2023/06/13 10:15:06;;;;;;;7.75;4.50;;;43.10;31.80;;;;;;5044059;28;20032;-69
2023/06/13 10:17:35;;;;;;;7.95;4.55;;;43.80;31.70;;;;;;5051378;28;20865;-69
2023/06/13 10:20:10;;;;;;;8.05;4.40;;;44.70;32.50;;;;;;5051138;28;20043;-69
2023/06/13 10:22:38;;;;;;;7.82;4.53;;;45.50;30.00;;;;;;5021410;28;20028;-69
2023/06/13 10:25:07;;;;;;;6.57;3.80;;;44.70;28.80;;;;;;5036456;28;20426;-70
2023/06/13 10:27:38;;;;;;;9.88;5.30;;;43.70;31.10;;;;;;5047565;28;20032;-70
2023/06/13 10:30:12;;;;;;;8.35;4.70;;;42.30;30.80;;;;;;5058279;28;20329;-70
2023/06/13 10:32:40;;;;;;;9.10;4.90;;;42.70;29.20;;;;;;5059233;28;20032;-69
2023/06/13 10:35:09;;;;;;;6.35;4.30;;;42.90;29.60;;;;;;5058998;28;20058;-69
2023/06/13 10:38:02;;;;;;;8.38;4.78;;;43.10;30.30;;;;;;5050193;28;20028;-70
2023/06/13 10:40:43;;;;;;;7.00;4.38;;;44.10;29.60;;;;;;5044562;28;20041;-70
2023/06/13 10:43:41;;;;;;;7.65;5.00;;;44.20;33.90;;;;;;5038195;28;20344;-70
2023/06/13 10:46:08;;;;;;;6.40;4.75;;;43.70;29.80;;;;;;5043365;28;20032;-70
2023/06/13 10:48:38;;;;;;;7.57;4.55;;;42.80;31.50;;;;;;5053284;28;20021;-70
2023/06/13 10:51:08;;;;;;;7.65;5.03;;;43.80;32.10;;;;;;5041745;28;20029;-70
2023/06/13 10:53:34;;;;;;;11.30;4.97;;;44.50;30.60;;;;;;5050800;28;20431;-70
2023/06/13 10:56:06;;;;;;;8.95;5.13;;;44.50;31.20;;;;;;5050350;28;20125;-69
2023/06/13 10:58:33;;;;;;;9.90;5.00;;;44.30;29.40;;;;;;5036437;28;20174;-70
2023/06/13 11:01:22;;;;;;;9.52;5.30;;;44.40;29.30;;;;;;5046774;28;20040;-69
2023/06/13 11:03:49;;;;;;;7.18;5.25;;;42.80;29.80;;;;;;5037507;28;20067;-69
2023/06/13 11:06:16;;;;;;;7.13;5.10;;;41.60;29.60;;;;;;5047153;28;20032;-70
2023/06/13 11:08:43;;;;;;;6.88;4.10;;;41.20;29.60;;;;;;5035965;28;20033;-70
2023/06/13 11:11:09;;;;;;;5.45;4.40;;;42.00;31.40;;;;;;5047280;28;20051;-70
2023/06/13 11:13:36;;;;;;;8.10;4.65;;;42.10;32.30;;;;;;5039786;28;20093;-70
2023/06/13 11:16:20;;;;;;;8.18;4.80;;;43.20;31.10;;;;;;5044918;28;20811;-69
2023/06/13 11:18:47;;;;;;;6.30;4.82;;;43.40;30.00;;;;;;5038853;28;20453;-70
2023/06/13 11:21:13;;;;;;;9.48;5.13;;;42.60;29.70;;;;;;5037801;28;20037;-70
2023/06/13 11:23:48;;;;;;;6.88;4.57;;;41.10;31.20;;;;;;5036620;28;20070;-70
2023/06/13 11:26:19;;;;;;;7.93;5.30;;;40.60;33.40;;;;;;5045994;28;20028;-70
2023/06/13 11:28:46;;;;;;;7.25;4.88;;;39.60;32.00;;;;;;5020145;23;20160;-70
2023/06/13 11:31:13;;;;;;;8.93;5.30;;;38.80;35.80;;;;;;5029721;28;20025;-70
2023/06/13 11:33:46;;;;;;;10.90;5.53;;;37.50;36.20;;;;;;5025665;28;20035;-70
2023/06/13 11:36:12;;;;;;;8.60;5.57;;;36.00;41.70;;;;;;5030189;28;20462;-70
2023/06/13 11:38:42;;;;;;;7.47;5.43;;;35.70;41.40;;;;;;5027625;28;20035;-70
2023/06/13 11:41:08;;;;;;;10.52;5.68;;;35.20;41.80;;;;;;5024883;28;20048;-70
2023/06/13 11:43:35;;;;;;;7.97;5.53;;;35.10;41.80;;;;;;4999840;28;20321;-70
2023/06/13 11:46:05;;;;;;;6.75;5.57;;;34.90;45.30;;;;;;5014105;28;20025;-69
2023/06/13 11:48:31;;;;;;;9.35;5.68;;;34.60;41.00;;;;;;5021127;28;20113;-70
2023/06/13 11:51:14;;;;;;;12.48;5.57;;;34.30;39.70;;;;;;5043263;28;20808;-70
2023/06/13 11:53:47;;;;;;;11.85;5.65;;;33.90;41.00;;;;;;5041537;28;20535;-70
2023/06/13 11:56:12;;;;;;;8.70;5.65;;;33.90;45.00;;;;;;5040495;28;20025;-69
2023/06/13 11:58:38;;;;;;;8.55;5.60;;;34.10;41.90;;;;;;5044745;28;20438;-69
2023/06/13 12:01:04;;;;;;;7.80;6.13;;;34.10;44.30;;;;;;5043488;28;20476;-69
2023/06/13 12:03:37;;;;;;;9.40;5.88;;;33.30;40.40;;;;;;5046253;28;20503;-70
2023/06/13 12:06:06;;;;;;;12.63;5.82;;;33.70;44.50;;;;;;5025548;28;20178;-69
2023/06/13 12:08:34;;;;;;;6.85;5.43;;;34.10;48.60;;;;;;5038989;28;20021;-69
2023/06/13 12:11:05;;;;;;;9.55;5.35;;;34.20;43.70;;;;;;5025019;28;20388;-69
2023/06/13 12:13:33;;;;;;;7.07;5.43;;;34.70;42.80;;;;;;5053422;28;20038;-69
2023/06/13 12:15:59;;;;;;;7.45;5.43;;;34.40;40.10;;;;;;5045037;28;20025;-70
2023/06/13 12:18:25;;;;;;;9.00;5.20;;;34.30;42.40;;;;;;5025762;28;20583;-69
2023/06/13 12:20:53;;;;;;;7.82;5.22;;;34.30;41.20;;;;;;5041132;28;20382;-69
2023/06/13 12:23:20;;;;;;;7.32;5.47;;;34.50;42.40;;;;;;5049962;28;20044;-69
2023/06/13 12:25:46;;;;;;;6.45;5.47;;;34.70;40.50;;;;;;5058619;28;20024;-69
2023/06/13 12:28:15;;;;;;;8.82;5.35;;;34.30;40.00;;;;;;5057167;28;20041;-69
2023/06/13 12:30:42;;;;;;;9.63;4.82;;;34.20;38.20;;;;;;5030734;28;20032;-69
2023/06/13 12:33:18;;;;;;;12.00;5.18;;;34.20;40.20;;;;;;5049611;28;20094;-70
2023/06/13 12:35:51;;;;;;;8.18;5.20;;;34.20;43.70;;;;;;5060674;28;20028;-70
2023/06/13 12:38:19;;;;;;;8.93;5.45;;;33.80;39.40;;;;;;5032597;28;20480;-70
2023/06/13 12:40:51;;;;;;;11.20;5.45;;;33.90;43.10;;;;;;5037894;28;20068;-70
2023/06/13 12:43:21;;;;;;;8.88;5.57;;;33.70;41.60;;;;;;5057744;28;20530;-69
2023/06/13 12:45:47;;;;;;;9.23;5.18;;;33.80;40.80;;;;;;5046161;28;20027;-70